Time;durP1;ratioP1;P1;durP2;ratioP2;P2;SDS_P1;SDS_P2;PMS_P1;PMS_P2;Temp;Humidity;BMP_temperature;BMP_pressure;BME280_temperature;BME280_humidity;BME280_pressure;Samples;Min_cycle;Max_cycle;Signal;HPM_P1;HPM_P2
2022/06/27 00:01:16;;;;;;;4.07;2.40;;;;;;;22.93;55.12;99910.41;4330087;33;32596;-92
2022/06/27 00:03:58;;;;;;;5.15;2.97;;;;;;;22.95;55.10;99910.25;4351849;32;33106;-94
2022/06/27 00:06:52;;;;;;;5.47;2.15;;;;;;;23.18;54.36;99911.63;4359275;32;35288;-94
2022/06/27 00:09:31;;;;;;;2.75;2.10;;;;;;;23.31;53.76;99905.06;4354764;32;32130;-91
2022/06/27 00:12:13;;;;;;;2.05;1.67;;;;;;;23.52;52.83;99906.56;4360462;32;34235;-91
2022/06/27 00:14:55;;;;;;;3.62;1.87;;;;;;;23.55;52.84;99904.56;4323106;33;33281;-93
2022/06/27 00:17:39;;;;;;;4.97;2.40;;;;;;;23.33;53.74;99911.16;4364980;32;33155;-93
2022/06/27 00:20:21;;;;;;;4.85;2.08;;;;;;;23.33;53.88;99912.00;4361167;32;32049;-93
2022/06/27 00:23:04;;;;;;;4.93;2.15;;;;;;;23.62;53.03;99911.91;4407358;32;33068;-92
2022/06/27 00:25:55;;;;;;;4.03;2.17;;;;;;;23.72;52.97;99911.91;4357994;32;33375;-87
2022/06/27 00:28:23;;;;;;;3.42;2.17;;;;;;;23.30;54.11;99909.59;4361562;32;33863;-87
2022/06/27 00:30:51;;;;;;;2.72;2.20;;;;;;;23.19;54.50;99913.31;4361746;32;32703;-87
2022/06/27 00:33:19;;;;;;;5.10;2.67;;;;;;;23.17;54.39;99912.63;4367842;32;33421;-87
2022/06/27 00:35:49;;;;;;;2.75;2.40;;;;;;;23.08;54.46;99908.09;4373788;32;33735;-86
2022/06/27 00:38:19;;;;;;;3.15;2.50;;;;;;;23.07;54.57;99919.84;4373181;32;33836;-86
2022/06/27 00:40:47;;;;;;;2.95;1.98;;;;;;;22.94;54.94;99913.94;4373500;32;32953;-85
2022/06/27 00:43:15;;;;;;;3.92;2.62;;;;;;;22.68;55.75;99911.78;4374381;32;32705;-86
2022/06/27 00:45:43;;;;;;;5.32;2.15;;;;;;;22.86;54.89;99903.00;4360570;32;34824;-86
2022/06/27 00:48:15;;;;;;;2.30;2.15;;;;;;;22.77;55.31;99906.53;4353730;32;33280;-86
2022/06/27 00:50:47;;;;;;;3.78;1.85;;;;;;;22.89;54.98;99913.53;4357374;32;33131;-86
2022/06/27 00:53:16;;;;;;;2.85;2.40;;;;;;;22.89;54.96;99911.69;4373891;32;33013;-86
2022/06/27 00:55:44;;;;;;;5.62;2.62;;;;;;;22.99;54.68;99914.34;4373939;32;33596;-86
2022/06/27 00:58:12;;;;;;;2.67;1.98;;;;;;;22.81;55.17;99910.66;4354270;32;33824;-86
2022/06/27 01:00:40;;;;;;;2.75;2.00;;;;;;;22.86;55.08;99916.47;4373811;32;32350;-86
2022/06/27 01:03:08;;;;;;;3.80;2.03;;;;;;;22.84;55.28;99918.44;4369081;32;32738;-86
2022/06/27 01:05:36;;;;;;;3.17;2.47;;;;;;;22.81;55.15;99916.87;4374068;32;32650;-88
2022/06/27 01:08:04;;;;;;;5.53;2.37;;;;;;;22.80;55.44;99922.41;4362241;32;33772;-88
2022/06/27 01:10:32;;;;;;;2.17;1.98;;;;;;;22.77;55.53;99925.37;4365109;32;32117;-85
2022/06/27 01:13:00;;;;;;;2.47;2.03;;;;;;;22.95;54.81;99924.56;4353217;32;32867;-86
2022/06/27 01:15:31;;;;;;;4.72;2.03;;;;;;;22.71;55.18;99921.44;4373593;32;33905;-85
2022/06/27 01:18:00;;;;;;;5.47;2.55;;;;;;;22.64;55.37;99923.81;4367464;32;33216;-85
2022/06/27 01:20:28;;;;;;;2.28;2.08;;;;;;;22.63;55.51;99929.34;4361295;32;32908;-85
2022/06/27 01:22:56;;;;;;;5.32;2.00;;;;;;;22.74;55.06;99922.00;4355900;32;34418;-85
2022/06/27 01:25:25;;;;;;;2.17;2.03;;;;;;;22.69;55.22;99924.25;4363507;32;33719;-85
2022/06/27 01:27:53;;;;;;;4.90;2.05;;;;;;;22.64;55.42;99915.72;4369824;32;33923;-85
2022/06/27 01:30:24;;;;;;;3.60;2.10;;;;;;;22.62;55.52;99916.87;4369548;32;33275;-86
2022/06/27 01:32:52;;;;;;;2.55;2.33;;;;;;;22.53;56.00;99913.19;4381076;32;34007;-87
2022/06/27 01:35:22;;;;;;;2.50;2.00;;;;;;;22.53;55.91;99910.50;4383504;32;33619;-88
2022/06/27 01:37:50;;;;;;;3.67;2.08;;;;;;;22.61;55.69;99916.03;4368370;32;33275;-88
2022/06/27 01:40:18;;;;;;;4.32;2.08;;;;;;;22.62;55.50;99917.72;4375645;32;32009;-88
2022/06/27 01:42:47;;;;;;;4.28;2.20;;;;;;;22.69;55.07;99912.63;4374271;32;32840;-88
2022/06/27 01:45:15;;;;;;;4.57;2.22;;;;;;;22.61;55.37;99909.81;4375768;32;33164;-88
2022/06/27 01:47:43;;;;;;;2.35;2.15;;;;;;;22.53;55.87;99909.66;4382998;32;33403;-88
2022/06/27 01:50:12;;;;;;;3.22;2.40;;;;;;;22.62;55.75;99917.72;4382046;32;33332;-88
2022/06/27 01:52:41;;;;;;;3.83;2.22;;;;;;;22.43;56.54;99917.72;4375891;32;32610;-88
2022/06/27 01:55:09;;;;;;;3.67;1.92;;;;;;;22.18;57.24;99922.63;4375381;32;34327;-89
2022/06/27 01:57:38;;;;;;;2.30;2.10;;;;;;;22.32;56.64;99909.78;4370235;32;33245;-88
2022/06/27 02:00:08;;;;;;;2.28;2.08;;;;;;;22.34;56.75;99913.19;4368959;32;33134;-88
2022/06/27 02:02:38;;;;;;;2.53;2.20;;;;;;;22.22;57.41;99918.69;4381727;32;32917;-88
2022/06/27 02:05:08;;;;;;;2.65;2.40;;;;;;;22.26;57.41;99915.69;4381569;32;33928;-88
2022/06/27 02:07:38;;;;;;;2.22;2.03;;;;;;;22.31;57.19;99918.81;4357157;32;32874;-88
2022/06/27 02:10:08;;;;;;;;;;;;;;;22.17;57.51;99926.31;4382758;32;32380;-88
2022/06/27 02:12:37;;;;;;;4.18;2.28;;;;;;;22.25;57.31;99928.31;4400117;32;34263;-87
2022/06/27 02:15:07;;;;;;;2.78;2.58;;;;;;;22.22;57.17;99926.75;4368786;32;33590;-87
2022/06/27 02:17:35;;;;;;;2.72;2.35;;;;;;;21.91;58.01;99938.53;4380634;32;33215;-87
2022/06/27 02:20:06;;;;;;;4.20;2.20;;;;;;;22.05;57.50;99937.28;4370191;32;33153;-87
2022/06/27 02:22:34;;;;;;;2.55;2.10;;;;;;;22.08;57.57;99932.50;4355270;32;33429;-87
2022/06/27 02:25:03;;;;;;;2.97;2.67;;;;;;;22.06;57.50;99931.75;4361780;32;34466;-87
2022/06/27 02:27:34;;;;;;;4.53;2.35;;;;;;;21.90;58.07;99934.97;4362841;32;33805;-87
2022/06/27 02:30:04;;;;;;;2.37;1.90;;;;;;;21.66;58.86;99929.94;4385909;32;33508;-87
2022/06/27 02:32:33;;;;;;;4.72;2.53;;;;;;;21.71;58.66;99938.44;4369477;32;33187;-87
2022/06/27 02:35:01;;;;;;;2.45;2.15;;;;;;;21.90;57.94;99926.91;4373514;32;33553;-85
2022/06/27 02:37:29;;;;;;;3.03;2.20;;;;;;;21.90;58.06;99932.28;4375295;32;34219;-85
2022/06/27 02:39:57;;;;;;;4.95;2.90;;;;;;;22.09;57.75;99933.34;4381072;32;33807;-87
2022/06/27 02:42:26;;;;;;;2.83;2.62;;;;;;;22.18;57.22;99937.94;4372791;32;33645;-86
2022/06/27 02:44:55;;;;;;;2.75;2.55;;;;;;;22.35;56.57;99933.69;4367017;32;34255;-87
2022/06/27 02:47:24;;;;;;;3.92;2.90;;;;;;;22.40;56.42;99939.50;4370501;32;32842;-86
2022/06/27 02:49:53;;;;;;;3.58;2.80;;;;;;;22.05;57.17;99935.44;4378866;32;32178;-86
2022/06/27 02:52:30;;;;;;;4.70;2.72;;;;;;;22.23;56.67;99941.06;4388213;32;33492;-86
2022/06/27 02:55:01;;;;;;;3.83;2.67;;;;;;;22.37;56.29;99947.87;4369300;32;32874;-86
2022/06/27 02:57:37;;;;;;;4.45;2.67;;;;;;;22.42;56.35;99941.09;4381701;32;34134;-86
2022/06/27 03:00:08;;;;;;;8.77;3.37;;;;;;;22.50;56.15;99948.44;4388105;32;32335;-86
2022/06/27 03:02:36;;;;;;;2.90;2.65;;;;;;;22.57;55.98;99946.06;4385293;32;33751;-86
2022/06/27 03:05:06;;;;;;;3.28;2.97;;;;;;;22.67;55.77;99953.16;4387540;32;32994;-89
2022/06/27 03:07:42;;;;;;;3.67;2.95;;;;;;;22.78;55.50;99951.31;4362571;32;33601;-89
2022/06/27 03:10:13;;;;;;;4.25;2.70;;;;;;;23.09;54.61;99952.88;4364411;32;32741;-89
2022/06/27 03:12:44;;;;;;;4.50;3.28;;;;;;;23.25;54.16;99958.53;4365077;32;32610;-89
2022/06/27 03:15:12;;;;;;;4.47;2.83;;;;;;;23.47;53.60;99967.28;4370678;32;33159;-89
2022/06/27 03:17:40;;;;;;;3.20;2.87;;;;;;;23.47;53.58;99962.75;4370213;32;33140;-89
2022/06/27 03:20:13;;;;;;;3.33;2.70;;;;;;;23.08;54.90;99961.97;4364579;32;32481;-89
2022/06/27 03:22:43;;;;;;;5.50;2.53;;;;;;;23.05;54.83;99961.41;4363986;32;33338;-89
2022/06/27 03:25:12;;;;;;;3.55;2.85;;;;;;;23.37;54.15;99966.47;4370207;32;33479;-89
2022/06/27 03:27:44;;;;;;;3.45;2.80;;;;;;;23.40;53.95;99968.84;4364820;32;33115;-90
2022/06/27 03:30:34;;;;;;;2.90;2.53;;;;;;;23.33;54.13;99975.84;4380611;32;32333;-90
2022/06/27 03:33:41;;;;;;;3.85;3.42;;;;;;;23.55;53.65;99974.62;4365381;32;34406;-90
2022/06/27 03:36:30;;;;;;;5.62;3.47;;;;;;;23.64;53.53;99969.28;4381570;32;33883;-91
2022/06/27 03:39:13;;;;;;;2.80;2.50;;;;;;;23.87;52.86;99979.66;4370828;32;32717;-91
2022/06/27 03:42:55;;;;;;;4.53;2.67;;;;;;;23.81;53.02;99972.19;4426598;32;31601;-90
2022/06/27 03:45:41;;;;;;;4.72;2.83;;;;;;;24.12;52.10;99973.62;4385428;32;33268;-90
2022/06/27 03:51:25;;;;;;;3.15;2.53;;;;;;;23.98;52.62;99976.81;4400906;32;33119;-88
2022/06/27 03:53:53;;;;;;;3.58;2.97;;;;;;;23.72;53.78;99985.53;4363982;32;32127;-91
2022/06/27 03:56:22;;;;;;;3.17;2.78;;;;;;;24.02;52.95;99986.28;4369852;32;33746;-90
2022/06/27 03:58:49;;;;;;;6.65;2.90;;;;;;;24.20;52.36;99981.78;4361544;32;33132;-91
2022/06/27 04:01:21;;;;;;;8.57;3.05;;;;;;;23.65;53.89;99989.84;4379897;32;33982;-91
2022/06/27 04:03:52;;;;;;;3.47;2.78;;;;;;;24.16;52.39;99975.00;4372933;32;32298;-90
2022/06/27 04:06:19;;;;;;;3.67;3.00;;;;;;;24.49;51.58;99983.50;4393179;32;34184;-88
2022/06/27 04:08:47;;;;;;;3.83;2.90;;;;;;;24.60;51.68;99987.84;4379699;32;33066;-88
2022/06/27 04:11:16;;;;;;;4.62;2.75;;;;;;;24.78;51.44;99983.28;4379793;32;32488;-88
2022/06/27 04:13:45;;;;;;;4.35;2.90;;;;;;;24.68;51.31;99990.62;4361307;32;31672;-88
2022/06/27 04:16:42;;;;;;;4.93;2.65;;;;;;;24.94;50.53;99982.62;4356488;32;32594;-92
2022/06/27 04:19:24;;;;;;;6.72;2.72;;;;;;;25.01;50.55;99991.78;4361201;32;33926;-91
2022/06/27 04:22:15;;;;;;;3.72;3.42;;;;;;;25.18;50.44;99990.97;4366496;32;32728;-93
2022/06/27 04:25:11;;;;;;;7.97;3.25;;;;;;;25.19;50.03;99998.06;4355417;32;33131;-92
2022/06/27 04:28:04;;;;;;;3.42;3.12;;;;;;;25.40;49.76;99994.16;4378564;32;32660;-92
2022/06/27 04:30:48;;;;;;;3.22;2.60;;;;;;;25.46;49.36;100001.66;4370357;32;32954;-91
2022/06/27 04:33:40;;;;;;;2.75;2.50;;;;;;;25.46;48.86;100001.66;4404077;32;32820;-91
2022/06/27 04:36:32;;;;;;;4.25;2.58;;;;;;;25.71;48.45;100003.50;4339856;32;32583;-91
2022/06/27 04:39:25;;;;;;;7.45;2.83;;;;;;;25.81;48.65;99994.47;4361651;32;32247;-86
2022/06/27 04:41:53;;;;;;;5.97;2.83;;;;;;;25.78;48.46;100001.06;4356071;32;33320;-86
2022/06/27 04:44:21;;;;;;;5.78;2.35;;;;;;;25.47;48.91;100000.66;4366458;32;33897;-85
2022/06/27 04:46:49;;;;;;;4.75;2.87;;;;;;;25.72;48.66;99999.78;4368206;32;33929;-84
2022/06/27 04:49:20;;;;;;;8.73;3.50;;;;;;;25.65;49.25;99995.19;4364525;32;33325;-84
2022/06/27 04:51:51;;;;;;;3.30;2.30;;;;;;;25.51;48.97;99996.62;4341249;32;33813;-84
2022/06/27 04:54:20;;;;;;;3.30;2.62;;;;;;;25.63;48.84;99998.03;4356771;32;32782;-84
2022/06/27 04:56:52;;;;;;;6.00;2.33;;;;;;;25.68;49.61;99995.69;4368949;32;33634;-85
2022/06/27 04:59:22;;;;;;;4.90;2.50;;;;;;;25.73;48.79;100000.63;4355525;32;33130;-86
2022/06/27 05:01:53;;;;;;;2.50;2.20;;;;;;;25.95;48.36;100007.41;4365674;32;32841;-87
2022/06/27 05:04:23;;;;;;;6.60;2.30;;;;;;;26.27;47.27;100010.25;4366307;32;33240;-86
2022/06/27 05:06:52;;;;;;;5.15;2.58;;;;;;;26.00;48.32;100007.75;4345439;32;34407;-86
2022/06/27 05:09:20;;;;;;;4.00;2.47;;;;;;;25.83;49.02;100008.66;4357470;32;33498;-86
2022/06/27 05:11:50;;;;;;;5.43;2.25;;;;;;;26.10;47.76;100008.47;4370013;32;33034;-86
2022/06/27 05:14:19;;;;;;;4.57;2.40;;;;;;;25.71;48.40;100011.62;4368197;32;33961;-86
2022/06/27 05:16:47;;;;;;;3.17;2.80;;;;;;;26.20;47.27;100011.91;4343683;32;33442;-86
2022/06/27 05:19:15;;;;;;;3.92;2.72;;;;;;;25.66;48.29;100005.00;4344543;32;33794;-86
2022/06/27 05:21:44;;;;;;;4.12;2.58;;;;;;;25.55;48.92;100011.53;4357610;32;33672;-91
2022/06/27 05:24:16;;;;;;;4.45;2.80;;;;;;;25.52;48.96;100011.84;4306028;32;33853;-90
2022/06/27 05:26:54;;;;;;;2.47;2.25;;;;;;;25.68;48.87;100008.38;4350815;32;32725;-89
2022/06/27 05:29:26;;;;;;;3.22;2.92;;;;;;;26.24;48.20;100007.03;4366783;32;34478;-89
2022/06/27 05:31:56;;;;;;;2.73;2.50;;;;;;;26.41;47.23;100003.37;4341488;32;33171;-88
2022/06/27 05:34:37;;;;;;;5.32;2.42;;;;;;;25.81;48.57;100005.28;4337858;32;32608;-89
2022/06/27 05:37:06;;;;;;;3.87;2.22;;;;;;;26.52;47.07;100007.66;4342035;32;32440;-90
2022/06/27 05:39:40;;;;;;;5.62;2.70;;;;;;;26.54;46.82;100000.25;4341411;32;33276;-92
2022/06/27 05:42:33;;;;;;;4.75;2.50;;;;;;;26.71;46.92;100010.09;4353731;32;33504;-90
2022/06/27 05:45:04;;;;;;;5.47;2.45;;;;;;;26.34;47.81;100007.75;4355608;32;32780;-90
2022/06/27 05:47:37;;;;;;;3.78;2.28;;;;;;;26.59;47.47;100006.00;4359257;32;33644;-88
2022/06/27 05:50:14;;;;;;;3.97;2.70;;;;;;;26.42;47.25;100012.34;4343496;32;33939;-89
2022/06/27 05:52:45;;;;;;;6.18;3.10;;;;;;;26.64;46.86;100009.06;4367671;32;32889;-89
2022/06/27 05:55:13;;;;;;;3.62;2.65;;;;;;;26.58;46.42;100009.72;4353067;32;32506;-89
2022/06/27 05:57:42;;;;;;;5.78;3.00;;;;;;;26.78;46.08;100005.72;4353902;32;33106;-90
2022/06/27 06:00:21;;;;;;;5.37;3.28;;;;;;;26.40;46.96;100017.09;4350764;32;32796;-89
2022/06/27 06:02:53;;;;;;;4.85;2.30;;;;;;;26.90;46.25;100013.50;4344407;32;33324;-89
2022/06/27 06:05:22;;;;;;;8.85;3.08;;;;;;;27.12;44.82;100014.75;4357311;32;32806;-89
2022/06/27 06:07:52;;;;;;;9.48;3.15;;;;;;;26.68;46.42;100026.69;4314507;33;32422;-87
2022/06/27 06:10:21;;;;;;;4.82;2.45;;;;;;;26.25;47.86;100030.37;4364005;32;33286;-91
2022/06/27 06:12:50;;;;;;;10.60;2.65;;;;;;;26.89;46.36;100025.38;4362770;32;32834;-90
2022/06/27 06:15:20;;;;;;;4.85;3.08;;;;;;;27.09;47.35;100024.06;4360360;32;32292;-90
2022/06/27 06:18:08;;;;;;;4.80;2.95;;;;;;;27.49;45.20;100019.69;4370549;32;31992;-90
2022/06/27 06:20:41;;;;;;;5.43;2.78;;;;;;;27.50;45.12;100022.22;4362084;32;32729;-90
2022/06/27 06:23:11;;;;;;;3.42;2.95;;;;;;;27.83;43.98;100032.22;4358359;32;34172;-90
2022/06/27 06:25:41;;;;;;;3.50;2.70;;;;;;;27.47;44.87;100027.13;4374715;32;33142;-90
2022/06/27 06:28:23;;;;;;;4.15;2.80;;;;;;;27.62;45.13;100028.13;4361689;32;32640;-89
2022/06/27 06:30:52;;;;;;;9.68;3.47;;;;;;;27.46;44.79;100031.69;4362254;32;33121;-90
2022/06/27 06:33:23;;;;;;;5.20;2.30;;;;;;;27.74;45.81;100037.63;4362014;32;32826;-86
2022/06/27 06:35:51;;;;;;;3.35;2.92;;;;;;;27.67;44.39;100033.87;4349917;32;33634;-86
2022/06/27 06:38:20;;;;;;;3.78;2.78;;;;;;;27.65;44.52;100041.34;4349302;32;32289;-86
2022/06/27 06:40:49;;;;;;;4.12;2.40;;;;;;;27.63;45.01;100046.12;4359230;32;32665;-86
2022/06/27 06:43:21;;;;;;;7.85;2.70;;;;;;;27.73;44.46;100038.66;4358589;32;34046;-86
2022/06/27 06:45:51;;;;;;;4.18;2.45;;;;;;;27.75;43.91;100039.34;4370984;32;32508;-88
2022/06/27 06:48:22;;;;;;;8.82;2.45;;;;;;;27.94;44.08;100039.97;4350728;32;32844;-91
2022/06/27 06:51:15;;;;;;;7.00;2.92;;;;;;;28.25;43.33;100038.19;4375363;32;33780;-91
2022/06/27 06:53:47;;;;;;;3.62;2.78;;;;;;;27.87;44.57;100034.41;4355403;32;32902;-92
2022/06/27 06:56:33;;;;;;;7.35;3.03;;;;;;;28.22;43.50;100034.97;4420732;32;33423;-90
2022/06/27 07:00:03;;;;;;;5.65;2.80;;;;;;;28.44;42.63;100041.53;4424229;32;34236;-90
2022/06/27 07:02:32;;;;;;;5.95;2.90;;;;;;;28.37;42.72;100035.12;4401708;32;34040;-91
2022/06/27 07:05:31;;;;;;;7.57;3.25;;;;;;;28.36;43.08;100044.28;4347060;32;32912;-92
2022/06/27 07:08:05;;;;;;;3.92;2.55;;;;;;;28.33;44.64;100042.72;4361449;32;32666;-90
2022/06/27 07:10:36;;;;;;;3.55;2.58;;;;;;;28.69;42.87;100037.69;4348560;32;32341;-91
2022/06/27 07:13:24;;;;;;;7.80;3.55;;;;;;;28.71;42.11;100040.22;4360892;32;33340;-90
2022/06/27 07:15:55;;;;;;;6.22;2.85;;;;;;;28.76;43.77;100035.06;4348509;32;33278;-90
2022/06/27 07:18:24;;;;;;;8.75;3.00;;;;;;;28.96;41.64;100043.66;4361251;32;33200;-92
2022/06/27 07:21:17;;;;;;;5.32;3.22;;;;;;;29.09;41.35;100041.19;4360543;32;32581;-91
2022/06/27 07:24:08;;;;;;;4.93;3.00;;;;;;;29.29;42.13;100031.53;4348906;32;33098;-91
2022/06/27 07:26:38;;;;;;;3.90;2.70;;;;;;;29.17;41.59;100037.56;4361417;32;32660;-91
2022/06/27 07:29:13;;;;;;;4.10;3.57;;;;;;;28.94;41.67;100027.50;4353398;32;32362;-87
2022/06/27 07:31:44;;;;;;;5.95;3.08;;;;;;;29.01;41.82;100041.25;4382578;32;32792;-88
2022/06/27 07:34:17;;;;;;;3.30;2.90;;;;;;;28.89;41.84;100045.38;4360135;32;34288;-88
2022/06/27 07:36:56;;;;;;;7.20;2.80;;;;;;;29.18;41.95;100031.94;4362674;32;32904;-88
2022/06/27 07:39:24;;;;;;;16.90;3.15;;;;;;;29.19;41.70;100049.09;4387924;32;32667;-88
2022/06/27 07:41:53;;;;;;;4.47;2.42;;;;;;;29.31;42.41;100044.94;4366499;32;33356;-89
2022/06/27 07:44:25;;;;;;;3.97;2.90;;;;;;;29.36;41.16;100038.94;4373045;32;33891;-88
2022/06/27 07:46:55;;;;;;;9.45;4.00;;;;;;;29.78;40.86;100047.44;4370611;32;32798;-88
2022/06/27 07:49:25;;;;;;;;;;;;;;;29.26;40.67;100048.19;4388632;32;33173;-89
2022/06/27 07:52:00;;;;;;;5.90;2.95;;;;;;;29.67;41.00;100045.13;4372961;32;33780;-88
2022/06/27 07:54:33;;;;;;;6.37;3.10;;;;;;;30.11;40.78;100047.09;4371334;32;33627;-88
2022/06/27 07:57:03;;;;;;;5.30;2.67;;;;;;;30.16;39.12;100052.00;4390199;32;33754;-88
2022/06/27 07:59:32;;;;;;;5.20;2.60;;;;;;;30.51;40.10;100047.66;4365538;32;33290;-88
2022/06/27 08:02:02;;;;;;;7.72;3.12;;;;;;;30.16;39.02;100039.22;4368958;32;34005;-88
2022/06/27 08:04:37;;;;;;;4.07;3.05;;;;;;;30.38;39.28;100045.59;4371425;32;32939;-89
2022/06/27 08:07:07;;;;;;;3.28;2.58;;;;;;;30.49;38.17;100050.56;4376161;32;33398;-89
2022/06/27 08:09:38;;;;;;;5.15;3.05;;;;;;;30.23;39.07;100048.31;4387072;32;34212;-88
2022/06/27 08:12:06;;;;;;;3.00;2.40;;;;;;;30.38;39.76;100050.19;4404240;32;32980;-88
2022/06/27 08:14:36;;;;;;;7.00;2.58;;;;;;;30.69;39.31;100048.09;4391161;32;34106;-88
2022/06/27 08:17:08;;;;;;;4.57;2.97;;;;;;;30.51;41.45;100053.09;4377224;32;33600;-89
2022/06/27 08:19:38;;;;;;;6.35;2.70;;;;;;;30.74;38.43;100042.94;4405769;32;32540;-88
2022/06/27 08:22:15;;;;;;;3.45;2.22;;;;;;;30.84;38.56;100053.53;4379172;32;33871;-89
2022/06/27 08:24:48;;;;;;;3.70;2.92;;;;;;;31.05;37.51;100044.50;4401713;32;33188;-87
2022/06/27 08:27:19;;;;;;;2.72;2.42;;;;;;;31.17;39.22;100053.87;4378318;32;34015;-87
2022/06/27 08:29:48;;;;;;;4.00;2.75;;;;;;;31.81;38.20;100051.13;4389856;32;34801;-87
2022/06/27 08:36:43;;;;;;;3.25;2.62;;;;;;;31.75;35.71;100060.09;4264058;33;33969;-87
2022/06/27 08:39:28;;;;;;;4.57;2.55;;;;;;;32.05;36.92;100058.03;4268840;33;35718;-87
2022/06/27 08:41:58;;;;;;;4.15;2.22;;;;;;;32.35;34.87;100055.91;4274907;33;33748;-87
2022/06/27 08:44:29;;;;;;;4.45;2.40;;;;;;;32.27;34.20;100061.53;4258411;33;33336;-87
2022/06/27 08:46:59;;;;;;;7.97;3.35;;;;;;;32.10;35.94;100051.97;4269503;33;33901;-87
2022/06/27 08:49:31;;;;;;;2.55;2.08;;;;;;;32.59;33.01;100048.25;4277153;33;33437;-87
2022/06/27 08:52:02;;;;;;;5.12;2.58;;;;;;;32.66;32.66;100048.28;4276203;33;33519;-86
2022/06/27 08:54:33;;;;;;;8.18;3.17;;;;;;;32.12;35.02;100052.59;4276079;33;33945;-87
2022/06/27 08:57:04;;;;;;;2.85;2.55;;;;;;;32.63;33.71;100050.37;4279474;33;34213;-89
2022/06/27 08:59:33;;;;;;;5.25;2.35;;;;;;;32.59;33.24;100045.53;4285623;33;33494;-90
2022/06/27 09:02:05;;;;;;;3.65;1.87;;;;;;;32.93;32.91;100033.66;4267739;33;34382;-90
2022/06/27 09:04:57;;;;;;;4.80;2.42;;;;;;;32.63;32.88;100046.81;4247957;33;32587;-90
2022/06/27 09:07:48;;;;;;;4.87;2.80;;;;;;;33.01;31.75;100027.19;4275901;33;33445;-90
2022/06/27 09:10:47;;;;;;;4.17;2.37;;;;;;;33.02;33.32;100032.44;4261952;33;32925;-91
2022/06/27 09:13:28;;;;;;;3.15;2.00;;;;;;;33.08;32.71;100030.75;4492682;31;325776;-89
2022/06/27 09:16:06;;;;;;;3.28;2.40;;;;;;;33.08;32.71;100030.75;4477452;31;32202;-90
2022/06/27 09:18:39;;;;;;;3.72;2.22;;;;;;;33.12;33.32;100034.75;4482561;31;32428;-90
2022/06/27 09:21:17;;;;;;;2.72;2.20;;;;;;;32.91;32.64;100037.69;4482563;31;33717;-90
2022/06/27 09:23:58;;;;;;;4.07;2.15;;;;;;;33.31;31.82;100014.78;4479477;31;32436;-90
2022/06/27 09:26:32;;;;;;;2.25;1.95;;;;;;;33.70;33.22;100015.84;4487542;31;33196;-90
2022/06/27 09:29:03;;;;;;;5.55;1.87;;;;;;;33.51;31.12;100023.03;4479114;31;32330;-90
2022/06/27 09:31:35;;;;;;;5.50;2.50;;;;;;;33.32;30.83;100016.47;4493500;31;33972;-91
2022/06/27 09:34:14;;;;;;;2.53;1.83;;;;;;;33.94;30.55;100010.75;4478371;31;32988;-89
2022/06/27 09:36:47;;;;;;;5.47;2.05;;;;;;;33.91;31.13;100014.78;4473728;31;32703;-89
2022/06/27 09:39:34;;;;;;;5.45;2.12;;;;;;;34.30;30.62;100013.84;4468353;31;33016;-89
2022/06/27 09:42:15;;;;;;;3.65;2.37;;;;;;;34.33;32.12;100018.91;4488876;31;34680;-88
2022/06/27 09:44:47;;;;;;;3.40;2.03;;;;;;;34.49;29.05;100008.53;4481927;31;33307;-89
2022/06/27 09:47:26;;;;;;;4.03;2.17;;;;;;;34.30;29.84;100010.28;4482203;32;32540;-89
2022/06/27 09:49:59;;;;;;;7.28;2.37;;;;;;;33.86;32.19;100004.47;4478826;31;34046;-89
2022/06/27 09:52:28;;;;;;;3.62;1.90;;;;;;;33.74;29.67;100006.16;4475961;31;33362;-91
2022/06/27 09:54:58;;;;;;;2.85;2.30;;;;;;;34.40;29.38;99999.69;4468207;31;33342;-89
2022/06/27 09:57:31;;;;;;;6.87;2.15;;;;;;;34.55;29.49;99994.78;4467268;31;30572;-89
2022/06/27 10:00:00;;;;;;;2.42;1.87;;;;;;;34.52;29.85;99994.41;4479283;31;33261;-89
2022/06/27 10:02:39;;;;;;;5.10;2.22;;;;;;;34.29;32.06;100001.19;4477420;31;33315;-89
2022/06/27 10:05:11;;;;;;;4.68;2.15;;;;;;;34.30;30.22;99991.91;4475066;31;32651;-89
2022/06/27 10:07:43;;;;;;;2.75;2.10;;;;;;;34.52;28.53;99991.66;4481649;31;33054;-89
2022/06/27 10:10:13;;;;;;;4.07;2.28;;;;;;;34.92;28.51;99985.94;4492053;31;33815;-89
2022/06/27 10:12:57;;;;;;;3.80;1.60;;;;;;;35.13;28.62;99996.56;4489311;31;33438;-89
2022/06/27 10:15:29;;;;;;;2.37;1.98;;;;;;;35.48;27.57;99974.97;4488040;31;33682;-89
2022/06/27 10:18:02;;;;;;;4.07;1.65;;;;;;;35.24;27.85;99982.12;4461469;31;32300;-88
2022/06/27 10:20:38;;;;;;;1.50;1.40;;;;;;;35.13;28.27;99977.34;4482362;31;33929;-89
2022/06/27 10:23:10;;;;;;;4.60;2.10;;;;;;;35.26;27.83;99970.91;4471661;31;32626;-89
2022/06/27 10:25:44;;;;;;;4.53;2.12;;;;;;;35.10;28.42;99972.31;4467372;31;32369;-89
2022/06/27 10:28:20;;;;;;;3.33;1.92;;;;;;;35.48;26.79;99974.97;4479947;31;33790;-89
2022/06/27 10:30:49;;;;;;;5.00;1.90;;;;;;;34.75;28.73;99975.47;4454878;32;31454;-89
2022/06/27 10:33:22;;;;;;;5.35;2.08;;;;;;;34.88;28.16;99975.38;4474604;31;33795;-89
2022/06/27 10:36:10;;;;;;;2.97;1.98;;;;;;;35.61;26.33;99969.38;4481272;31;33485;-89
2022/06/27 10:38:41;;;;;;;4.25;1.80;;;;;;;35.08;29.00;99969.78;4480363;31;32188;-88
2022/06/27 10:44:29;;;;;;;5.15;2.12;;;;;;;34.68;28.75;99971.94;4475432;31;33192;-89
2022/06/27 10:47:05;;;;;;;3.03;1.70;;;;;;;35.41;28.59;99961.25;4452020;31;34149;-89
2022/06/27 10:49:39;;;;;;;8.50;2.00;;;;;;;35.59;28.41;99952.25;4465198;31;32674;-89
2022/06/27 10:52:24;;;;;;;2.53;1.75;;;;;;;35.50;28.22;99953.63;4466042;32;33445;-88
2022/06/27 10:54:56;;;;;;;2.70;1.80;;;;;;;35.68;26.93;99941.81;4477885;31;33195;-89
2022/06/27 10:57:38;;;;;;;6.28;2.05;;;;;;;36.35;27.46;99939.97;4468677;31;32858;-89
2022/06/27 11:00:38;;;;;;;5.82;2.28;;;;;;;35.89;26.11;99943.28;4466816;31;31972;-89
2022/06/27 11:03:20;;;;;;;5.07;1.92;;;;;;;36.02;26.10;99945.06;4478164;31;31712;-89
2022/06/27 11:06:15;;;;;;;2.67;1.83;;;;;;;35.88;27.57;99945.19;4467677;31;32611;-89
2022/06/27 11:08:46;;;;;;;2.08;1.83;;;;;;;35.88;26.00;99945.19;4464475;31;32265;-89
2022/06/27 11:11:27;;;;;;;3.05;2.03;;;;;;;35.75;28.05;99944.50;4466946;31;32512;-91
2022/06/27 11:14:05;;;;;;;2.60;2.10;;;;;;;35.84;27.71;99935.72;4461778;31;32830;-89
2022/06/27 11:16:37;;;;;;;4.90;1.80;;;;;;;35.78;27.60;99936.62;4458657;32;34511;-89
2022/06/27 11:20:04;;;;;;;4.20;2.37;;;;;;;36.00;26.03;99934.31;4443386;32;32947;-89
2022/06/27 11:24:36;;;;;;;5.78;2.17;;;;;;;36.08;25.20;99924.91;4468567;31;34013;-90
2022/06/27 11:27:04;;;;;;;5.18;1.77;;;;;;;36.29;26.21;99913.44;4464809;31;32786;-89
2022/06/27 11:32:27;;;;;;;3.83;1.87;;;;;;;35.61;25.97;99922.69;4469125;31;32543;-89
2022/06/27 11:34:55;;;;;;;8.05;2.10;;;;;;;35.47;26.47;99912.91;4464773;31;31935;-89
2022/06/27 11:37:30;;;;;;;5.15;2.20;;;;;;;35.34;26.50;99910.25;4473702;31;35118;-90
2022/06/27 11:40:04;;;;;;;8.57;1.98;;;;;;;35.48;26.56;99911.81;4459043;31;34044;-89
2022/06/27 11:42:36;;;;;;;4.12;2.15;;;;;;;35.13;28.85;99914.22;4464389;31;32738;-90
2022/06/27 11:45:13;;;;;;;2.62;2.42;;;;;;;35.51;26.75;99910.53;4476618;31;33275;-90
2022/06/27 11:47:45;;;;;;;2.55;2.10;;;;;;;36.02;24.92;99914.84;4464820;31;33059;-90
2022/06/27 11:50:18;;;;;;;5.35;2.30;;;;;;;36.12;26.01;99906.88;4481713;31;33429;-90
2022/06/27 11:52:54;;;;;;;2.45;1.80;;;;;;;36.08;25.76;99911.16;4467571;31;31878;-90
2022/06/27 11:55:31;;;;;;;2.03;1.92;;;;;;;36.31;24.63;99893.94;4467426;31;32696;-89
2022/06/27 11:58:10;;;;;;;4.70;1.90;;;;;;;36.16;27.30;99910.84;4461834;32;34289;-89
2022/06/27 12:00:39;;;;;;;5.25;1.73;;;;;;;36.67;23.92;99907.63;4459052;31;33804;-90
2022/06/27 12:03:10;;;;;;;3.90;1.67;;;;;;;36.43;25.61;99908.63;4464622;31;33011;-89
2022/06/27 12:05:40;;;;;;;3.35;1.80;;;;;;;36.44;24.79;99892.94;4479596;31;33673;-90
2022/06/27 12:08:18;;;;;;;5.00;1.90;;;;;;;36.14;24.94;99896.50;4467945;31;34029;-90
2022/06/27 12:13:40;;;;;;;1.73;1.60;;;;;;;36.23;25.50;99881.38;4470875;31;33503;-90
2022/06/27 12:16:10;;;;;;;3.47;1.77;;;;;;;36.41;25.21;99878.53;4467489;31;32918;-90
2022/06/27 12:18:51;;;;;;;4.70;1.65;;;;;;;36.45;24.53;99878.13;4480110;31;33987;-89
2022/06/27 12:21:24;;;;;;;3.12;1.80;;;;;;;36.57;24.36;99879.00;4459867;31;32974;-89